• Join FlightAware (Why Join?)
  • Login
  • US Flag 
11:06AM EDT


 

Airport Tracker/Info


-or-


 

Live Flight TrackerFlight Track Log ✈ N775NC ✈ 13-Aug-2013 ✈ KSAV - KATL

Flight Track Log - Related Links

Times and Time Zones

All times are in EDT time to prevent confusion due to time zone crossing. See the N775NC flight status page for this flight to view local times or setup timezone preferences in your user account.

Time Position Orientation Groundspeed Altitude Reporting Facility
EDT Latitude Longitude Course Direction KTS MPH feet Rate Location/Type
05:44AM 32.2442 -81.6432 287° West  Level FlightAware Approximate
05:49AM 32.1328 -81.2489 287° West 404 465 1,700  Level Jacksonville Center
05:50AM 32.1442 -81.3050 283° West 275 316 3,300 1,980 Climbing Jacksonville Center
05:51AM 32.1594 -81.3758 284° West 229 264 5,700 2,520 Climbing Jacksonville Center
05:52AM 32.1833 -81.4589 289° West 229 264 8,400 2,160 Climbing Jacksonville Center
05:54AM 32.2161 -81.6503 281° West 299 344 12,600 1,980 Climbing Atlanta Center
05:55AM 32.2350 -81.7750 280° West 333 383 14,800 2,100 Climbing Atlanta Center
05:56AM 32.2742 -81.8647 297° West 338 389 16,800 1,860 Climbing Atlanta Center
05:57AM 32.3386 -81.9592 309° West 348 400 18,600 1,020 Climbing Atlanta Center
05:58AM 32.3986 -82.0586 306° West 366 421 18,900 180 Climbing Atlanta Center
05:59AM 32.4608 -82.1606 306° West 372 428 19,000  Climbing Atlanta Center
06:00AM 32.5250 -82.2725 304° West 393 452 19,000  Level Atlanta Center
06:01AM 32.5892 -82.3894 303° West 411 473 19,000  Level Atlanta Center
06:02AM 32.6575 -82.4969 307° West 417 480 19,000  Level Atlanta Center
06:03AM 32.7256 -82.6092 306° West 417 480 19,000  Level Atlanta Center
06:04AM 32.7914 -82.7144 307° West 417 480 19,000  Level Atlanta Center
06:05AM 32.8594 -82.8197 308° West 412 474 19,000  Level Atlanta Center
06:06AM 32.9292 -82.9300 307° West 412 474 19,000  Level Atlanta Center
06:07AM 32.9969 -83.0456 305° West 412 474 19,000 -120 Level Atlanta Center
06:08AM 33.0689 -83.1614 307° West 423 487 18,800 -660 Descending Atlanta Center
06:09AM 33.1406 -83.2647 310° West 423 487 17,700 -1,320 Descending Atlanta Center
06:10AM 33.2017 -83.3758 303° West 410 472 16,200 -1,740 Descending Atlanta Center
06:11AM 33.2608 -83.4872 302° West 404 465 14,300 -1,860 Descending Atlanta Center
06:12AM 33.3050 -83.6139 293° West 385 443 12,500 -1,200 Descending Atlanta Center
06:13AM 33.3514 -83.7206 298° West 367 422 12,000 -720 Descending Atlanta Center
06:14AM 33.3975 -83.8172 300° West 352 405 11,100 -1,140 Descending Atlanta Center
06:15AM 33.4497 -83.8919 310° West 321 369 9,800 -1,320 Descending Atlanta Center
06:16AM 33.5061 -83.9517 319° Northwest 274 315 8,500 -1,440 Descending Atlanta Center
06:17AM 33.5689 -83.9914 332° Northwest 253 291 7,000 -1,500 Descending Atlanta Center
06:18AM 33.6189 -84.0414 320° Northwest 242 278 5,500 -1,380 Descending Atlanta Center
06:19AM 33.6294 -84.1136 280° West 228 262 4,300 -960 Descending Atlanta Center
06:20AM 33.6333 -84.1500 277° West 210 242 4,000 -120 Descending Atlanta TRACON
06:21AM 33.6333 -84.2167 270° West 176 203 4,100 -300 Climbing Atlanta TRACON
06:22AM 33.6333 -84.2500 270° West 176 203 3,500 -900 Descending Atlanta TRACON
06:23AM 33.6333 -84.3167 270° West 167 192 2,600 -840 Descending Atlanta TRACON
06:23AM 33.6333 -84.3500 270° West 118 136 2,000 -660 Descending Atlanta TRACON
06:24AM 33.6333 -84.4000 270° West 123 142 1,400 -600 Descending Atlanta TRACON